Time;durP1;ratioP1;P1;durP2;ratioP2;P2;SDS_P1;SDS_P2;PMS_P1;PMS_P2;Temp;Humidity;BMP_temperature;BMP_pressure;BME280_temperature;BME280_humidity;BME280_pressure;Samples;Min_cycle;Max_cycle;Signal;HPM_P1;HPM_P2
2022/08/06 00:02:20;;;;;;;21.80;10.98;;;;;;;22.88;55.93;99978.25;5107085;28;20046;-46
2022/08/06 00:04:47;;;;;;;15.07;10.80;;;;;;;22.89;55.81;99987.91;5109472;28;20031;-48
2022/08/06 00:07:17;;;;;;;20.20;10.80;;;;;;;22.91;55.93;99979.81;5109132;28;20530;-46
2022/08/06 00:09:43;;;;;;;18.10;10.07;;;;;;;22.88;56.05;99977.41;5109207;28;20431;-47
2022/08/06 00:12:10;;;;;;;19.95;11.45;;;;;;;22.55;56.27;99934.06;5110300;28;20040;-49
2022/08/06 00:14:36;;;;;;;15.07;10.75;;;;;;;22.81;56.33;99982.38;5108967;28;20031;-47
2022/08/06 00:17:03;;;;;;;15.70;10.75;;;;;;;22.60;56.49;99955.75;5109478;28;20153;-47
2022/08/06 00:19:29;;;;;;;17.58;10.73;;;;;;;22.73;56.52;99980.31;5110066;28;20040;-49
2022/08/06 00:21:55;;;;;;;14.32;10.45;;;;;;;22.68;56.65;99982.47;5109842;28;20050;-52
2022/08/06 00:24:21;;;;;;;18.30;10.88;;;;;;;22.64;56.84;99989.00;5109788;28;20031;-47
2022/08/06 00:26:47;;;;;;;17.25;10.82;;;;;;;22.61;57.05;99981.25;5110100;28;20180;-49
2022/08/06 00:29:14;;;;;;;18.95;10.55;;;;;;;22.58;57.24;99986.81;5108651;28;20096;-50
2022/08/06 00:31:40;;;;;;;17.08;11.93;;;;;;;22.55;57.32;99984.44;5109835;28;20035;-48
2022/08/06 00:34:06;;;;;;;18.52;11.35;;;;;;;22.26;57.51;99932.88;5108708;28;20048;-46
2022/08/06 00:36:33;;;;;;;15.60;11.05;;;;;;;22.57;57.66;99982.47;5112126;28;20048;-48
2022/08/06 00:39:01;;;;;;;15.38;10.57;;;;;;;22.57;57.70;99985.13;5113699;28;20250;-48
2022/08/06 00:41:28;;;;;;;17.67;11.60;;;;;;;22.57;57.79;99982.47;5113904;28;20419;-48
2022/08/06 00:43:55;;;;;;;17.88;11.02;;;;;;;22.58;57.67;99980.66;5113687;28;20043;-51
2022/08/06 00:46:22;;;;;;;16.02;11.27;;;;;;;22.59;57.74;99990.31;5113114;28;20084;-50
2022/08/06 00:48:48;;;;;;;18.08;10.43;;;;;;;22.47;57.96;99965.63;5111379;28;20564;-51
2022/08/06 00:51:14;;;;;;;20.60;11.27;;;;;;;22.57;58.06;99979.81;5113581;28;20051;-48
2022/08/06 00:53:40;;;;;;;21.13;10.65;;;;;;;22.53;58.31;99983.69;5113013;28;20084;-53
2022/08/06 00:56:06;;;;;;;19.05;10.75;;;;;;;22.52;58.45;99989.94;5113614;28;20104;-47
2022/08/06 00:58:32;;;;;;;17.15;11.48;;;;;;;22.51;58.41;99984.75;5113094;28;20515;-47
2022/08/06 01:00:58;;;;;;;15.52;11.25;;;;;;;22.49;58.61;99982.25;5111780;28;20427;-47
2022/08/06 01:03:24;;;;;;;14.93;10.70;;;;;;;22.48;58.52;99987.66;5112220;28;20043;-47
2022/08/06 01:05:50;;;;;;;17.40;11.52;;;;;;;22.45;58.71;99988.75;5095295;28;20035;-50
2022/08/06 01:08:16;;;;;;;19.27;11.40;;;;;;;22.43;58.72;99981.88;5112459;28;20043;-48
2022/08/06 01:10:42;;;;;;;15.05;10.70;;;;;;;22.42;58.82;99988.13;5113172;28;20043;-45
2022/08/06 01:13:08;;;;;;;18.52;12.13;;;;;;;22.31;58.65;99973.06;5113128;28;20050;-48
2022/08/06 01:15:36;;;;;;;19.23;12.50;;;;;;;22.38;58.63;99988.38;5112705;27;20043;-51
2022/08/06 01:18:15;;;;;;;19.13;11.73;;;;;;;22.36;58.69;99978.84;5112611;27;20112;-48
2022/08/06 01:21:00;;;;;;;21.13;13.02;;;;;;;22.34;58.78;99986.09;5091615;28;20048;-52
2022/08/06 01:23:38;;;;;;;19.45;12.65;;;;;;;22.33;58.76;99995.00;5103371;28;20035;-48
2022/08/06 01:26:33;;;;;;;14.10;11.83;;;;;;;22.32;58.67;99988.88;5113051;28;20043;-48
2022/08/06 01:29:30;;;;;;;15.93;11.60;;;;;;;22.32;58.60;99991.50;5111156;28;20035;-49
2022/08/06 01:32:02;;;;;;;22.40;12.25;;;;;;;22.29;58.70;99991.78;5091349;28;20051;-48
2022/08/06 01:34:32;;;;;;;17.30;12.05;;;;;;;22.31;58.65;99996.94;5108106;28;20039;-51
2022/08/06 01:37:22;;;;;;;21.80;11.60;;;;;;;22.30;58.82;99993.44;5109539;28;20048;-49
2022/08/06 01:39:52;;;;;;;18.30;12.10;;;;;;;22.26;58.82;99997.28;5111167;28;20052;-51
2022/08/06 01:42:19;;;;;;;17.77;12.23;;;;;;;22.11;58.63;99973.78;5112517;28;20051;-52
2022/08/06 01:45:13;;;;;;;18.30;12.55;;;;;;;22.24;58.92;99993.91;5093644;28;20143;-50
2022/08/06 01:47:40;;;;;;;19.48;12.27;;;;;;;22.22;58.88;100009.09;5111318;28;20120;-48
2022/08/06 01:50:06;;;;;;;16.88;11.65;;;;;;;22.05;58.94;99966.31;5110930;28;20417;-53
2022/08/06 01:52:37;;;;;;;22.42;13.50;;;;;;;22.26;59.20;99996.44;5111506;28;20043;-50
2022/08/06 01:55:07;;;;;;;14.57;11.77;;;;;;;21.97;59.46;99961.63;5111629;28;20570;-47
2022/08/06 01:57:33;;;;;;;21.45;12.80;;;;;;;22.20;59.67;99999.56;5111830;28;20044;-47
2022/08/06 02:00:01;;;;;;;17.55;12.68;;;;;;;22.05;59.74;99982.19;5109329;28;20045;-49
2022/08/06 02:02:27;;;;;;;19.55;11.98;;;;;;;22.23;59.65;99994.88;5111541;28;20043;-51
2022/08/06 02:04:55;;;;;;;22.17;12.07;;;;;;;22.25;59.92;99997.41;5111440;28;20510;-48
2022/08/06 02:07:25;;;;;;;17.52;12.50;;;;;;;22.21;60.06;99998.59;5109985;28;20036;-46
2022/08/06 02:09:52;;;;;;;22.08;13.00;;;;;;;22.18;60.09;100002.34;5110874;28;20514;-47
2022/08/06 02:12:20;;;;;;;19.15;12.68;;;;;;;22.18;60.09;100010.28;5110764;28;20104;-49
2022/08/06 02:14:56;;;;;;;19.93;12.20;;;;;;;22.03;60.06;99986.78;5110089;28;20039;-49
2022/08/06 02:17:27;;;;;;;21.05;13.07;;;;;;;22.14;60.28;100005.34;5107972;28;20032;-52
2022/08/06 02:19:53;;;;;;;22.05;13.50;;;;;;;22.13;60.35;100008.97;5088765;28;20473;-51
2022/08/06 02:22:19;;;;;;;17.05;12.88;;;;;;;22.13;60.31;100012.44;5108660;28;20044;-49
2022/08/06 02:24:47;;;;;;;21.67;13.48;;;;;;;22.11;60.62;100009.06;5109580;28;20031;-49
2022/08/06 02:27:16;;;;;;;17.88;13.73;;;;;;;22.10;60.62;100012.66;5112022;28;20035;-48
2022/08/06 02:29:42;;;;;;;18.10;14.10;;;;;;;22.10;60.59;100011.81;5110642;28;20040;-48
2022/08/06 02:32:09;;;;;;;16.95;13.05;;;;;;;22.11;60.65;100011.72;5093625;28;20122;-49
2022/08/06 02:34:35;;;;;;;23.35;14.90;;;;;;;22.13;60.67;100014.25;5110208;28;20482;-52
2022/08/06 02:37:23;;;;;;;20.38;14.05;;;;;;;22.13;61.07;100016.91;5110558;28;20537;-48
2022/08/06 02:39:54;;;;;;;;;;;;;;;22.11;61.00;100016.16;5110901;28;20039;-53
2022/08/06 02:42:28;;;;;;;18.23;13.43;;;;;;;22.07;61.05;100017.38;5110171;28;20386;-48
2022/08/06 02:45:20;;;;;;;24.83;15.18;;;;;;;21.86;61.20;99978.31;5103258;28;20109;-45
2022/08/06 02:47:52;;;;;;;18.88;14.40;;;;;;;22.08;61.27;100011.97;5102082;28;20052;-46
2022/08/06 02:50:21;;;;;;;21.67;13.70;;;;;;;22.09;61.27;100008.31;5108931;28;20042;-47
2022/08/06 02:52:52;;;;;;;25.55;14.57;;;;;;;22.10;61.41;100012.66;5092248;28;20065;-48
2022/08/06 02:55:20;;;;;;;20.98;13.75;;;;;;;22.11;61.51;100005.56;5109512;28;20469;-47
2022/08/06 02:57:51;;;;;;;17.45;12.68;;;;;;;22.14;61.48;100013.31;5109659;28;20063;-54
2022/08/06 03:00:18;;;;;;;23.40;14.38;;;;;;;22.14;61.68;100011.47;5109830;28;20046;-45
2022/08/06 03:02:44;;;;;;;19.80;13.85;;;;;;;22.14;61.91;100014.13;5111479;28;20059;-45
2022/08/06 03:05:14;;;;;;;22.80;13.73;;;;;;;22.16;61.99;100020.16;5109555;28;20082;-47
2022/08/06 03:07:41;;;;;;;22.65;14.15;;;;;;;22.18;61.81;100014.75;5110488;28;20042;-48
2022/08/06 03:10:08;;;;;;;23.13;14.70;;;;;;;22.17;61.95;100018.34;5108285;28;20039;-46
2022/08/06 03:12:35;;;;;;;20.15;14.40;;;;;;;22.21;61.69;100010.03;5109293;28;20112;-42
2022/08/06 03:15:30;;;;;;;26.27;14.77;;;;;;;22.22;61.99;100003.78;5092881;28;20043;-48
2022/08/06 03:18:00;;;;;;;18.40;13.30;;;;;;;21.98;61.86;99959.81;5102536;28;20130;-46
2022/08/06 03:20:26;;;;;;;25.55;15.40;;;;;;;22.28;62.16;100018.38;5107249;28;20122;-43
2022/08/06 03:22:55;;;;;;;21.73;14.23;;;;;;;22.30;62.01;100017.28;5107530;28;20138;-45
2022/08/06 03:25:21;;;;;;;19.85;13.02;;;;;;;22.14;62.17;99986.81;5107089;28;20078;-45
2022/08/06 03:27:48;;;;;;;26.00;15.10;;;;;;;22.16;62.00;99977.78;5107256;28;20047;-44
2022/08/06 03:30:16;;;;;;;21.15;14.68;;;;;;;22.36;61.93;100006.19;5107519;28;20043;-48
2022/08/06 03:32:42;;;;;;;29.40;15.77;;;;;;;22.46;61.68;100018.72;5108429;28;20035;-45
2022/08/06 03:35:09;;;;;;;24.17;15.73;;;;;;;22.49;61.44;100016.69;5109150;28;20530;-44
2022/08/06 03:37:36;;;;;;;25.90;15.88;;;;;;;22.54;61.36;100019.84;5109311;28;20051;-44
2022/08/06 03:40:03;;;;;;;18.13;14.32;;;;;;;22.45;61.21;99987.91;5109440;28;20043;-44
2022/08/06 03:42:29;;;;;;;21.05;14.20;;;;;;;22.62;61.27;100016.56;5092487;28;20422;-48
2022/08/06 03:44:55;;;;;;;20.88;15.32;;;;;;;22.66;61.35;100016.19;5110583;28;20032;-45
2022/08/06 03:47:24;;;;;;;19.88;14.80;;;;;;;22.70;61.25;100015.00;5109098;28;20039;-46
2022/08/06 03:50:16;;;;;;;27.08;14.85;;;;;;;22.74;61.30;100018.28;5110642;28;20564;-42
2022/08/06 03:53:03;;;;;;;27.45;15.93;;;;;;;22.77;61.12;100021.53;5105642;28;20070;-44
2022/08/06 03:55:32;;;;;;;22.73;14.63;;;;;;;22.82;61.04;100028.28;5110284;28;20088;-42
2022/08/06 03:58:03;;;;;;;20.90;15.75;;;;;;;22.62;60.97;99982.94;5092595;28;20043;-44
2022/08/06 04:00:32;;;;;;;22.35;14.88;;;;;;;22.86;60.97;100021.78;5109006;28;20035;-45
2022/08/06 04:02:59;;;;;;;19.60;14.88;;;;;;;22.72;61.04;99991.88;5092525;28;20134;-45
2022/08/06 04:05:27;;;;;;;24.73;15.35;;;;;;;22.94;61.22;100020.19;5109280;28;20027;-46
2022/08/06 04:07:56;;;;;;;24.77;15.13;;;;;;;22.95;61.25;100024.53;5109249;28;20120;-46
2022/08/06 04:10:26;;;;;;;;;;;;;;;23.00;61.24;100019.69;5109797;28;20430;-42
2022/08/06 04:12:52;;;;;;;19.10;14.27;;;;;;;23.01;61.25;100020.56;5114514;28;19919;-44
2022/08/06 04:15:18;;;;;;;23.63;15.20;;;;;;;22.84;61.27;99986.56;5114448;28;20422;-44
2022/08/06 04:17:45;;;;;;;20.85;14.48;;;;;;;23.08;61.19;100025.22;5113214;28;20040;-44
2022/08/06 04:20:13;;;;;;;21.40;15.30;;;;;;;23.09;61.16;100013.66;5113042;28;20051;-44
2022/08/06 04:22:39;;;;;;;20.92;15.18;;;;;;;23.19;60.91;100022.53;5112572;28;20051;-43
2022/08/06 04:25:05;;;;;;;21.13;14.75;;;;;;;23.21;60.87;100020.63;5114222;28;20043;-44
2022/08/06 04:27:32;;;;;;;21.42;14.90;;;;;;;23.31;60.90;100023.38;5112988;28;20148;-47
2022/08/06 04:29:58;;;;;;;18.40;14.52;;;;;;;23.38;60.98;100027.22;5112942;28;20039;-46
2022/08/06 04:32:25;;;;;;;20.38;15.05;;;;;;;23.45;60.88;100031.06;5112763;28;20039;-43
2022/08/06 04:34:52;;;;;;;22.77;14.27;;;;;;;23.52;61.09;100026.09;5095587;28;20067;-43
2022/08/06 04:37:18;;;;;;;25.85;15.50;;;;;;;23.41;60.84;100004.88;5112823;28;20134;-43
2022/08/06 04:39:44;;;;;;;20.70;15.13;;;;;;;23.64;60.75;100020.63;5112714;28;20522;-46
2022/08/06 04:42:10;;;;;;;20.05;14.93;;;;;;;23.71;60.50;100028.09;5112542;28;20039;-47
2022/08/06 04:44:36;;;;;;;18.60;14.85;;;;;;;23.78;60.26;100018.63;5112512;28;20050;-43
2022/08/06 04:47:02;;;;;;;17.80;13.93;;;;;;;23.72;60.36;100006.69;5112461;28;20240;-44
2022/08/06 04:49:29;;;;;;;18.95;14.98;;;;;;;23.91;60.19;100021.94;5095549;28;20518;-43
2022/08/06 04:51:55;;;;;;;23.75;16.10;;;;;;;24.00;60.00;100029.13;5113511;28;20059;-47
2022/08/06 04:54:21;;;;;;;18.73;15.43;;;;;;;24.06;59.95;100020.66;5113758;28;20104;-43
2022/08/06 04:56:47;;;;;;;21.90;15.25;;;;;;;24.16;59.74;100023.38;5113654;28;20035;-43
2022/08/06 04:59:12;;;;;;;27.38;15.20;;;;;;;24.21;59.72;100011.41;5112274;28;20530;-44
2022/08/06 05:01:38;;;;;;;18.58;14.52;;;;;;;24.33;59.56;100018.34;5113452;28;20051;-48
2022/08/06 05:04:04;;;;;;;19.25;14.45;;;;;;;24.40;59.71;100013.31;5112231;28;20081;-43
2022/08/06 05:06:40;;;;;;;22.92;14.15;;;;;;;24.51;59.64;100015.03;5112191;28;20446;-45
2022/08/06 05:09:09;;;;;;;22.90;15.20;;;;;;;24.60;59.42;100017.72;5112248;28;20040;-43
2022/08/06 05:11:40;;;;;;;17.95;13.32;;;;;;;24.52;59.25;99996.31;5111699;28;20077;-45
2022/08/06 05:14:10;;;;;;;19.27;14.48;;;;;;;24.51;59.28;99977.81;5112114;28;20495;-45
2022/08/06 05:16:39;;;;;;;18.83;14.32;;;;;;;24.88;58.99;100008.22;5111995;28;20074;-46
2022/08/06 05:19:10;;;;;;;23.92;15.70;;;;;;;24.99;58.77;100018.75;5111939;28;20096;-45
2022/08/06 05:21:37;;;;;;;23.42;14.93;;;;;;;25.04;58.45;100015.69;5111796;28;20084;-45
2022/08/06 05:24:04;;;;;;;24.65;15.02;;;;;;;25.15;57.97;100016.41;5111896;28;20582;-45
2022/08/06 05:26:30;;;;;;;23.00;15.38;;;;;;;25.23;57.96;100018.38;5111714;28;20040;-43
2022/08/06 05:28:56;;;;;;;22.95;15.85;;;;;;;25.30;57.74;100019.50;5113059;28;20039;-45
2022/08/06 05:31:34;;;;;;;20.80;14.65;;;;;;;25.36;57.29;100012.78;5094833;28;20576;-48
2022/08/06 05:34:01;;;;;;;25.90;14.45;;;;;;;25.51;57.24;100014.06;5112892;28;20078;-44
2022/08/06 05:36:27;;;;;;;21.08;13.68;;;;;;;25.67;57.02;100017.88;5112841;28;20515;-44
2022/08/06 05:38:53;;;;;;;20.13;14.00;;;;;;;25.83;56.69;100008.47;5111617;28;20051;-48
2022/08/06 05:41:19;;;;;;;22.42;13.43;;;;;;;26.00;56.25;100013.09;5112692;28;20031;-46
2022/08/06 05:43:45;;;;;;;18.13;13.02;;;;;;;26.07;56.05;100012.34;5112533;28;20508;-45
2022/08/06 05:46:21;;;;;;;14.10;12.27;;;;;;;26.09;56.10;100006.88;5112537;28;20147;-45
2022/08/06 05:48:59;;;;;;;18.63;11.98;;;;;;;26.04;55.48;99988.66;5111421;28;20031;-44
2022/08/06 05:51:33;;;;;;;25.27;12.10;;;;;;;26.31;55.29;100009.25;5111326;28;20055;-45
2022/08/06 05:54:04;;;;;;;16.27;12.75;;;;;;;26.51;54.96;100004.69;5112306;28;20100;-46
2022/08/06 05:56:34;;;;;;;20.33;12.18;;;;;;;26.66;54.63;100002.38;5111189;28;20040;-45
2022/08/06 05:59:05;;;;;;;18.50;12.55;;;;;;;26.83;54.63;100007.78;5111163;28;20039;-46
2022/08/06 06:01:32;;;;;;;17.70;12.60;;;;;;;26.97;53.96;100009.97;5110759;28;20060;-44
2022/08/06 06:03:58;;;;;;;20.17;12.23;;;;;;;27.13;53.27;100005.81;5112309;28;20051;-47
2022/08/06 06:06:24;;;;;;;19.08;12.63;;;;;;;27.27;52.78;100014.13;5111332;28;20039;-44
2022/08/06 06:08:50;;;;;;;19.70;12.75;;;;;;;27.31;52.61;100002.19;5110896;28;20036;-41
2022/08/06 06:11:17;;;;;;;18.25;12.98;;;;;;;27.39;52.13;100012.91;5110984;28;20055;-47
2022/08/06 06:13:43;;;;;;;21.98;12.23;;;;;;;27.50;51.88;100014.56;5110495;28;20039;-45
2022/08/06 06:16:28;;;;;;;17.90;11.63;;;;;;;27.71;51.63;100014.25;5111911;28;20047;-46
2022/08/06 06:19:16;;;;;;;21.88;13.23;;;;;;;27.92;51.15;100013.91;5110998;28;20510;-44
2022/08/06 06:21:52;;;;;;;21.27;11.75;;;;;;;28.08;50.65;100016.69;5111892;28;20503;-44
2022/08/06 06:24:26;;;;;;;25.02;10.68;;;;;;;28.15;50.27;100013.28;5110619;28;20058;-47
2022/08/06 06:27:01;;;;;;;18.33;11.48;;;;;;;28.15;49.97;100009.78;5110354;28;20050;-47
2022/08/06 06:29:45;;;;;;;18.00;10.00;;;;;;;28.22;49.70;100003.63;5111998;28;20047;-43
2022/08/06 06:32:33;;;;;;;14.52;10.00;;;;;;;28.44;49.35;100012.13;5111536;28;20031;-47
2022/08/06 06:35:11;;;;;;;14.88;9.82;;;;;;;29.02;48.05;100005.03;5111006;28;20470;-44
2022/08/06 06:37:41;;;;;;;19.00;9.20;;;;;;;30.00;46.06;99994.44;5111504;28;20047;-44
2022/08/06 06:40:29;;;;;;;14.90;8.60;;;;;;;30.93;43.56;99974.06;5111439;28;20035;-45
2022/08/06 06:43:05;;;;;;;13.77;9.18;;;;;;;31.94;41.37;100005.09;5111719;28;20032;-47
2022/08/06 06:45:42;;;;;;;15.48;8.63;;;;;;;32.49;40.66;99982.38;5111263;28;20040;-44
2022/08/06 06:48:14;;;;;;;17.90;9.33;;;;;;;33.39;39.16;100001.75;5109742;28;20035;-43
2022/08/06 06:50:42;;;;;;;11.68;8.15;;;;;;;34.46;37.74;99999.75;5110983;28;20142;-43
2022/08/06 06:53:10;;;;;;;15.98;9.20;;;;;;;35.21;36.11;99996.16;5076039;28;20337;-47
2022/08/06 06:55:43;;;;;;;12.70;8.07;;;;;;;36.07;34.25;100002.47;5092854;28;20112;-46
2022/08/06 06:58:31;;;;;;;11.20;8.80;;;;;;;36.66;33.33;99999.72;5109728;28;20066;-47
2022/08/06 07:00:58;;;;;;;12.30;8.77;;;;;;;37.52;32.20;100008.25;5111044;28;20073;-44
2022/08/06 07:03:27;;;;;;;10.32;8.00;;;;;;;38.00;30.47;100000.41;5109619;28;20530;-47
2022/08/06 07:05:54;;;;;;;14.18;7.68;;;;;;;38.51;29.60;100007.44;5109640;28;20084;-44
2022/08/06 07:08:21;;;;;;;13.95;8.50;;;;;;;38.56;29.22;99977.69;5109376;28;20108;-44
2022/08/06 07:10:48;;;;;;;9.85;7.57;;;;;;;38.99;28.38;99983.03;5109729;28;20723;-49
2022/08/06 07:13:15;;;;;;;10.10;7.93;;;;;;;38.59;28.59;99979.94;5092697;28;20578;-48
2022/08/06 07:15:41;;;;;;;13.10;8.40;;;;;;;38.67;28.48;100001.41;5092595;28;20070;-47
2022/08/06 07:18:07;;;;;;;12.15;8.05;;;;;;;39.16;27.63;99992.19;5109550;28;20035;-47
2022/08/06 07:20:34;;;;;;;10.18;7.90;;;;;;;39.05;27.52;100003.84;5109448;28;20047;-48
2022/08/06 07:23:06;;;;;;;11.07;7.70;;;;;;;38.94;27.56;99996.50;5109803;28;20035;-46
2022/08/06 07:25:43;;;;;;;10.23;7.63;;;;;;;39.38;27.13;100000.69;5109448;28;20067;-48
2022/08/06 07:28:12;;;;;;;16.13;8.60;;;;;;;40.20;26.17;100009.84;5109383;28;20138;-47
2022/08/06 07:30:40;;;;;;;11.15;7.60;;;;;;;39.90;26.50;100000.94;5108985;28;20043;-47
2022/08/06 07:33:06;;;;;;;9.52;7.88;;;;;;;39.99;26.26;99992.16;5110705;28;20055;-47
2022/08/06 07:35:33;;;;;;;11.70;8.45;;;;;;;41.08;25.50;99995.13;5109051;28;20045;-46
2022/08/06 07:38:03;;;;;;;11.35;8.25;;;;;;;42.41;23.73;99987.00;5110827;28;20477;-45
2022/08/06 07:40:37;;;;;;;10.18;8.25;;;;;;;43.31;23.05;99991.09;5108507;28;20039;-47
2022/08/06 07:43:25;;;;;;;14.90;8.68;;;;;;;43.82;22.31;99990.44;5109294;28;20047;-48
2022/08/06 07:45:56;;;;;;;12.55;8.23;;;;;;;44.35;21.57;99991.38;5111684;28;20051;-50
2022/08/06 07:48:26;;;;;;;9.23;8.20;;;;;;;44.41;21.31;99995.81;5113500;28;20118;-47
2022/08/06 07:50:53;;;;;;;16.95;7.57;;;;;;;43.95;21.45;99974.69;5095936;28;20113;-45
2022/08/06 07:53:19;;;;;;;7.97;7.17;;;;;;;43.28;21.34;99986.13;5113307;28;20126;-44
2022/08/06 07:55:47;;;;;;;9.00;7.28;;;;;;;43.30;21.98;99984.78;5113515;28;20281;-43
2022/08/06 07:58:14;;;;;;;10.88;7.65;;;;;;;43.39;21.62;99991.44;5113425;28;20062;-48
2022/08/06 08:00:41;;;;;;;8.43;7.13;;;;;;;43.06;21.97;99983.41;5113075;28;20035;-47
2022/08/06 08:08:37;;;;;;;8.88;7.82;;;;;;;41.25;23.36;99985.06;5113442;28;20046;-48
2022/08/06 08:11:03;;;;;;;11.88;7.70;;;;;;;41.52;23.13;99969.75;5114589;28;20047;-48
2022/08/06 08:13:31;;;;;;;10.35;7.60;;;;;;;42.23;22.65;99977.16;5114356;28;20085;-48
2022/08/06 08:15:57;;;;;;;10.23;7.47;;;;;;;42.58;22.87;99970.53;5114249;28;20034;-46
2022/08/06 08:18:31;;;;;;;11.00;8.07;;;;;;;42.67;22.39;99974.47;5112773;28;20047;-45
2022/08/06 08:20:58;;;;;;;11.57;8.55;;;;;;;42.96;22.02;99980.56;5095832;28;20333;-49
2022/08/06 08:23:25;;;;;;;11.23;7.95;;;;;;;43.54;21.41;99982.56;5112589;28;20042;-46
2022/08/06 08:25:50;;;;;;;11.70;7.85;;;;;;;43.81;21.27;99955.91;5112598;28;20074;-47
2022/08/06 08:28:16;;;;;;;12.27;8.10;;;;;;;43.32;21.18;99981.78;5095643;28;20075;-47
2022/08/06 08:30:44;;;;;;;9.13;7.20;;;;;;;43.67;20.85;99957.47;5113808;28;20451;-45
2022/08/06 08:33:10;;;;;;;8.82;7.93;;;;;;;43.53;20.98;99969.97;5113893;28;20077;-44
2022/08/06 08:35:35;;;;;;;9.45;7.55;;;;;;;44.05;20.85;99974.75;5112480;28;20136;-49
2022/08/06 08:38:01;;;;;;;11.40;6.38;;;;;;;43.80;20.53;99972.63;5113696;28;20134;-45
2022/08/06 08:40:28;;;;;;;9.05;7.00;;;;;;;43.43;20.71;99956.16;5112280;28;20035;-47
2022/08/06 08:42:58;;;;;;;9.65;6.35;;;;;;;43.48;20.36;99970.75;5112049;28;20036;-47
2022/08/06 08:45:24;;;;;;;7.10;6.40;;;;;;;43.00;20.83;99946.97;5112140;28;20039;-45
2022/08/06 08:47:52;;;;;;;8.85;6.50;;;;;;;43.62;20.22;99921.81;5113231;28;20126;-48
2022/08/06 08:50:19;;;;;;;8.63;6.32;;;;;;;44.12;19.68;99961.63;5113219;28;20099;-46
2022/08/06 08:52:45;;;;;;;;;;;;;;;45.24;19.48;99963.72;5113654;28;20131;-45
2022/08/06 08:55:12;;;;;;;11.17;6.67;;;;;;;46.16;18.63;99948.00;5112073;28;20465;-44
2022/08/06 08:57:38;;;;;;;8.05;7.15;;;;;;;45.81;18.46;99943.41;5111292;28;20039;-45
2022/08/06 09:00:06;;;;;;;11.60;6.83;;;;;;;46.11;18.48;99959.84;5112053;28;20059;-45
2022/08/06 09:02:32;;;;;;;13.65;8.00;;;;;;;46.92;17.62;99958.72;5092652;28;20382;-46
2022/08/06 09:04:59;;;;;;;10.77;7.32;;;;;;;47.66;17.25;99960.41;5091706;28;20085;-48
2022/08/06 09:07:26;;;;;;;10.40;6.07;;;;;;;46.70;17.66;99959.94;5090167;28;20046;-47
2022/08/06 09:09:52;;;;;;;11.10;7.20;;;;;;;43.99;19.78;99948.38;5074347;28;20040;-45
2022/08/06 09:12:18;;;;;;;7.95;6.80;;;;;;;43.83;20.16;99948.25;5091403;28;20419;-49
2022/08/06 09:14:46;;;;;;;9.23;7.03;;;;;;;44.15;20.01;99947.38;5092389;28;20036;-44
2022/08/06 09:17:11;;;;;;;;;;;;;;;42.77;20.95;99939.03;5091857;28;20427;-47
2022/08/06 09:19:37;;;;;;;8.18;6.45;;;;;;;43.18;20.86;99932.13;5092519;28;19922;-47
2022/08/06 09:22:03;;;;;;;7.18;6.35;;;;;;;43.83;20.10;99945.53;5091210;28;20415;-46
2022/08/06 09:24:30;;;;;;;10.02;7.78;;;;;;;44.92;19.32;99950.19;5092405;28;20047;-44
2022/08/06 09:27:23;;;;;;;10.02;7.03;;;;;;;45.28;19.02;99940.09;5092404;28;20047;-44
2022/08/06 09:29:55;;;;;;;7.80;7.00;;;;;;;45.72;18.44;99950.56;5091762;28;20458;-46
2022/08/06 09:32:39;;;;;;;7.15;6.55;;;;;;;45.20;19.12;99954.38;5092300;28;20051;-45
2022/08/06 09:35:34;;;;;;;7.85;7.10;;;;;;;45.57;18.30;99939.56;5090723;28;20392;-46
2022/08/06 09:38:05;;;;;;;7.65;6.90;;;;;;;45.89;18.29;99937.38;5053154;28;20040;-49
2022/08/06 09:40:31;;;;;;;7.63;6.85;;;;;;;46.11;18.19;99931.53;5090816;28;20047;-46
2022/08/06 09:42:57;;;;;;;7.93;7.13;;;;;;;46.53;17.66;99931.94;5090961;28;20503;-48
2022/08/06 09:45:25;;;;;;;7.65;6.82;;;;;;;45.14;18.52;99931.59;5090699;28;20040;-47
2022/08/06 09:48:03;;;;;;;8.57;6.90;;;;;;;43.88;19.69;99923.66;5091928;28;20499;-48
2022/08/06 09:50:49;;;;;;;11.10;7.75;;;;;;;44.48;19.19;99924.25;5091829;28;20044;-45
2022/08/06 09:53:21;;;;;;;8.00;7.20;;;;;;;44.40;19.86;99922.00;5090661;28;20138;-46
2022/08/06 09:55:47;;;;;;;8.13;7.38;;;;;;;44.90;19.32;99924.13;5091980;28;20119;-46
2022/08/06 09:58:13;;;;;;;9.03;7.30;;;;;;;45.99;18.31;99914.50;5091731;28;20044;-46
2022/08/06 10:00:39;;;;;;;9.15;6.50;;;;;;;44.28;19.40;99920.31;5091976;28;20089;-47
2022/08/06 10:03:07;;;;;;;13.18;6.95;;;;;;;42.40;21.12;99918.91;5091694;28;20496;-50
2022/08/06 10:05:35;;;;;;;9.52;6.55;;;;;;;40.90;22.79;99917.00;5090468;28;20071;-49
2022/08/06 10:08:12;;;;;;;8.98;7.15;;;;;;;39.16;24.28;99893.41;5091148;28;20064;-46
2022/08/06 10:10:44;;;;;;;9.00;6.75;;;;;;;40.86;23.44;99903.03;5091732;28;20054;-50
2022/08/06 10:13:13;;;;;;;7.90;7.10;;;;;;;43.42;20.88;99905.19;5090633;28;20039;-48
2022/08/06 10:15:39;;;;;;;7.80;7.00;;;;;;;45.25;19.58;99915.94;5091946;28;20136;-47
2022/08/06 10:18:05;;;;;;;8.07;7.15;;;;;;;45.88;18.31;99917.28;5073677;28;20126;-44
2022/08/06 10:20:31;;;;;;;8.30;7.50;;;;;;;46.04;17.78;99912.56;5091502;28;20534;-45
2022/08/06 10:22:57;;;;;;;6.85;6.15;;;;;;;44.52;19.01;99920.69;5091459;28;20036;-46
2022/08/06 10:25:24;;;;;;;8.10;6.40;;;;;;;41.64;21.99;99902.22;5091455;28;20036;-50
2022/08/06 10:27:53;;;;;;;8.13;7.43;;;;;;;40.48;23.16;99897.34;5091453;28;20045;-46
2022/08/06 10:30:20;;;;;;;9.10;6.95;;;;;;;41.03;22.49;99892.16;5091139;28;20036;-44
2022/08/06 10:32:53;;;;;;;7.90;7.18;;;;;;;41.67;21.87;99889.97;5091387;28;20093;-48
2022/08/06 10:35:21;;;;;;;13.18;7.07;;;;;;;42.85;21.19;99892.09;5090115;28;20073;-45
2022/08/06 10:37:53;;;;;;;7.55;6.85;;;;;;;41.59;22.84;99888.50;5091404;28;20051;-49
2022/08/06 10:40:20;;;;;;;9.50;6.47;;;;;;;39.71;24.12;99880.38;5091078;28;20097;-46
2022/08/06 10:42:46;;;;;;;7.28;6.28;;;;;;;38.37;25.55;99870.84;5091243;28;20040;-48
2022/08/06 10:45:13;;;;;;;9.83;6.77;;;;;;;37.42;27.11;99861.41;5089766;28;20072;-46
2022/08/06 10:47:41;;;;;;;10.38;6.85;;;;;;;36.84;27.68;99866.22;5089850;28;20126;-44
2022/08/06 10:50:10;;;;;;;12.38;6.88;;;;;;;36.06;28.42;99858.16;5089621;28;20050;-45
2022/08/06 10:52:35;;;;;;;9.32;7.22;;;;;;;37.92;26.36;99848.59;5091121;28;20135;-45
2022/08/06 10:55:04;;;;;;;9.82;6.88;;;;;;;39.74;24.24;99850.78;5089549;28;20143;-44
2022/08/06 10:57:31;;;;;;;10.05;6.57;;;;;;;39.18;24.84;99850.50;5089589;28;20051;-46
2022/08/06 11:00:00;;;;;;;7.22;6.45;;;;;;;39.47;24.30;99855.03;5089602;28;20523;-49
2022/08/06 11:02:40;;;;;;;10.90;6.72;;;;;;;40.37;23.99;99854.59;5090812;28;20050;-47
2022/08/06 11:05:11;;;;;;;7.95;7.03;;;;;;;41.55;22.44;99840.94;5072650;28;20036;-46
2022/08/06 11:07:59;;;;;;;7.32;5.60;;;;;;;41.08;21.89;99855.97;5090705;28;20048;-46
2022/08/06 11:10:24;;;;;;;7.03;6.30;;;;;;;40.11;23.23;99851.34;5090801;28;20042;-47
2022/08/06 11:12:54;;;;;;;7.68;6.72;;;;;;;41.50;21.82;99835.41;5090580;28;20044;-46
2022/08/06 11:15:20;;;;;;;7.30;6.55;;;;;;;42.83;20.58;99846.91;5090568;28;20036;-46
2022/08/06 11:17:49;;;;;;;7.35;6.70;;;;;;;43.24;20.49;99848.91;5089160;28;20134;-46
2022/08/06 11:20:48;;;;;;;8.05;7.30;;;;;;;44.46;19.01;99850.44;5090373;28;20046;-49
2022/08/06 11:23:13;;;;;;;8.98;8.10;;;;;;;45.58;18.62;99845.88;5029235;28;20048;-45
2022/08/06 11:25:45;;;;;;;7.50;6.90;;;;;;;45.61;17.91;99831.59;5088953;28;20036;-49
2022/08/06 11:28:15;;;;;;;10.90;7.38;;;;;;;44.49;18.41;99808.75;5089321;28;20502;-44
2022/08/06 11:30:53;;;;;;;7.03;6.43;;;;;;;44.26;18.80;99828.44;5090437;28;20104;-47
2022/08/06 11:33:34;;;;;;;8.18;6.60;;;;;;;42.55;20.11;99824.19;5090200;28;20070;-43
2022/08/06 11:36:02;;;;;;;7.80;6.68;;;;;;;42.74;20.41;99818.38;5090248;28;20101;-46
2022/08/06 11:38:43;;;;;;;7.00;6.38;;;;;;;43.00;19.75;99818.34;5090276;28;20047;-45